Oakhill, Kansas
Current Conditions -  °F | °C
As of 4:55 AM on Friday 28 Nov 2014 (Local Time) from KCNK Reporting Station
Clear Clear  
Wind Chill: 28°   Ceiling: Unl
Heat Index: 34°   Visibility: 10mi
Dew Point: 26°   Wind: 7mph
Humidity: 73%   Direction: 210°SSW
Pressure: 29.92"   Gusts: NA
Location:  39.3117°N, 97.253°W
Report Text: KCNK 281055Z AUTO 21006KT 10SM CLR 01/M03 A2992 RMK AO2 SLP142 T00111033
Loading
Personal Weather Stations






























Interactive Weather Map New forecast layout! Learn more

10-Day Weather Forecast

Advertisements
Track Severe Weather on mobile